sensor_id;sensor_type;location;lat;lon;timestamp;temperature;humidity
5023;DHT22;2530;47.990;7.866;2022-08-02T00:00:58;17.40;99.90
5023;DHT22;2530;47.990;7.866;2022-08-02T00:03:24;17.40;99.90
5023;DHT22;2530;47.990;7.866;2022-08-02T00:05:50;17.40;99.90
5023;DHT22;2530;47.990;7.866;2022-08-02T00:08:16;17.40;99.90
5023;DHT22;2530;47.990;7.866;2022-08-02T00:10:42;17.50;99.90
5023;DHT22;2530;47.990;7.866;2022-08-02T00:13:08;17.50;99.90
5023;DHT22;2530;47.990;7.866;2022-08-02T00:15:34;17.30;99.90
5023;DHT22;2530;47.990;7.866;2022-08-02T00:18:00;17.30;99.90
5023;DHT22;2530;47.990;7.866;2022-08-02T00:20:26;17.30;99.90
5023;DHT22;2530;47.990;7.866;2022-08-02T00:22:52;17.30;99.90
5023;DHT22;2530;47.990;7.866;2022-08-02T00:25:18;17.30;99.90
5023;DHT22;2530;47.990;7.866;2022-08-02T00:27:43;17.30;99.90
5023;DHT22;2530;47.990;7.866;2022-08-02T00:30:09;17.40;99.90
5023;DHT22;2530;47.990;7.866;2022-08-02T00:32:35;17.30;99.90
5023;DHT22;2530;47.990;7.866;2022-08-02T00:35:02;17.30;99.90
5023;DHT22;2530;47.990;7.866;2022-08-02T00:37:27;17.30;99.90
5023;DHT22;2530;47.990;7.866;2022-08-02T00:39:53;17.30;99.90
5023;DHT22;2530;47.990;7.866;2022-08-02T00:42:19;17.30;99.90
5023;DHT22;2530;47.990;7.866;2022-08-02T00:44:44;17.30;99.90
5023;DHT22;2530;47.990;7.866;2022-08-02T00:47:10;17.30;99.90
5023;DHT22;2530;47.990;7.866;2022-08-02T00:49:36;17.30;99.90
5023;DHT22;2530;47.990;7.866;2022-08-02T00:52:03;17.30;99.90
5023;DHT22;2530;47.990;7.866;2022-08-02T00:54:29;17.30;99.90
5023;DHT22;2530;47.990;7.866;2022-08-02T00:56:54;17.30;99.90
5023;DHT22;2530;47.990;7.866;2022-08-02T00:59:20;17.30;99.90
5023;DHT22;2530;47.990;7.866;2022-08-02T01:01:46;17.30;99.90
5023;DHT22;2530;47.990;7.866;2022-08-02T01:04:13;17.30;99.90
5023;DHT22;2530;47.990;7.866;2022-08-02T01:06:40;17.30;99.90
5023;DHT22;2530;47.990;7.866;2022-08-02T01:09:06;17.50;99.90
5023;DHT22;2530;47.990;7.866;2022-08-02T01:11:34;17.50;99.90
5023;DHT22;2530;47.990;7.866;2022-08-02T01:14:07;17.50;99.90
5023;DHT22;2530;47.990;7.866;2022-08-02T01:16:49;17.50;99.90
5023;DHT22;2530;47.990;7.866;2022-08-02T01:19:33;17.40;99.90
5023;DHT22;2530;47.990;7.866;2022-08-02T01:30:38;17.20;99.90
5023;DHT22;2530;47.990;7.866;2022-08-02T01:33:05;17.20;99.90
5023;DHT22;2530;47.990;7.866;2022-08-02T01:35:37;17.20;99.90
5023;DHT22;2530;47.990;7.866;2022-08-02T01:38:15;17.20;99.90
5023;DHT22;2530;47.990;7.866;2022-08-02T01:40:44;17.20;99.90
5023;DHT22;2530;47.990;7.866;2022-08-02T01:43:11;17.00;99.90
5023;DHT22;2530;47.990;7.866;2022-08-02T01:45:40;17.10;99.90
5023;DHT22;2530;47.990;7.866;2022-08-02T01:48:07;17.00;99.90
5023;DHT22;2530;47.990;7.866;2022-08-02T01:50:35;17.00;99.90
5023;DHT22;2530;47.990;7.866;2022-08-02T01:53:05;16.90;99.90
5023;DHT22;2530;47.990;7.866;2022-08-02T01:55:52;16.90;99.90
5023;DHT22;2530;47.990;7.866;2022-08-02T01:58:21;16.90;99.90
5023;DHT22;2530;47.990;7.866;2022-08-02T02:00:50;16.90;99.90
5023;DHT22;2530;47.990;7.866;2022-08-02T02:03:23;16.90;99.90
5023;DHT22;2530;47.990;7.866;2022-08-02T02:05:51;16.90;99.90
5023;DHT22;2530;47.990;7.866;2022-08-02T02:08:24;16.90;99.90
5023;DHT22;2530;47.990;7.866;2022-08-02T02:10:51;16.90;99.90
5023;DHT22;2530;47.990;7.866;2022-08-02T02:13:18;16.90;99.90
5023;DHT22;2530;47.990;7.866;2022-08-02T02:15:47;16.80;99.90
5023;DHT22;2530;47.990;7.866;2022-08-02T02:18:20;16.80;99.90
5023;DHT22;2530;47.990;7.866;2022-08-02T02:20:48;16.80;99.90
5023;DHT22;2530;47.990;7.866;2022-08-02T02:23:13;16.80;99.90
5023;DHT22;2530;47.990;7.866;2022-08-02T02:25:40;16.80;99.90
5023;DHT22;2530;47.990;7.866;2022-08-02T02:28:13;16.80;99.90
5023;DHT22;2530;47.990;7.866;2022-08-02T02:30:46;16.80;99.90
5023;DHT22;2530;47.990;7.866;2022-08-02T02:33:13;16.80;99.90
5023;DHT22;2530;47.990;7.866;2022-08-02T02:35:42;16.90;99.90
5023;DHT22;2530;47.990;7.866;2022-08-02T02:38:11;16.80;99.90
5023;DHT22;2530;47.990;7.866;2022-08-02T02:40:39;16.80;99.90
5023;DHT22;2530;47.990;7.866;2022-08-02T02:43:07;16.80;99.90
5023;DHT22;2530;47.990;7.866;2022-08-02T02:45:34;16.90;99.90
5023;DHT22;2530;47.990;7.866;2022-08-02T02:48:01;16.80;99.90
5023;DHT22;2530;47.990;7.866;2022-08-02T02:50:28;16.70;99.90
5023;DHT22;2530;47.990;7.866;2022-08-02T02:52:55;16.70;99.90
5023;DHT22;2530;47.990;7.866;2022-08-02T02:55:21;16.70;99.90
5023;DHT22;2530;47.990;7.866;2022-08-02T02:57:49;16.70;99.90
5023;DHT22;2530;47.990;7.866;2022-08-02T03:00:14;16.60;99.90
5023;DHT22;2530;47.990;7.866;2022-08-02T03:02:42;16.60;99.90
5023;DHT22;2530;47.990;7.866;2022-08-02T03:05:10;16.60;99.90
5023;DHT22;2530;47.990;7.866;2022-08-02T03:07:37;16.60;99.90
5023;DHT22;2530;47.990;7.866;2022-08-02T03:10:05;16.60;99.90
5023;DHT22;2530;47.990;7.866;2022-08-02T03:12:32;16.60;99.90
5023;DHT22;2530;47.990;7.866;2022-08-02T03:15:03;16.60;99.90
5023;DHT22;2530;47.990;7.866;2022-08-02T03:17:44;16.60;99.90
5023;DHT22;2530;47.990;7.866;2022-08-02T03:20:15;16.60;99.90
5023;DHT22;2530;47.990;7.866;2022-08-02T03:22:42;16.70;99.90
5023;DHT22;2530;47.990;7.866;2022-08-02T03:25:11;16.60;99.90
5023;DHT22;2530;47.990;7.866;2022-08-02T03:27:37;16.60;99.90
5023;DHT22;2530;47.990;7.866;2022-08-02T03:30:05;16.60;99.90
5023;DHT22;2530;47.990;7.866;2022-08-02T03:32:32;16.60;99.90
5023;DHT22;2530;47.990;7.866;2022-08-02T03:35:00;16.50;99.90
5023;DHT22;2530;47.990;7.866;2022-08-02T03:37:27;16.50;99.90
5023;DHT22;2530;47.990;7.866;2022-08-02T03:39:54;16.50;99.90
5023;DHT22;2530;47.990;7.866;2022-08-02T03:42:20;16.40;99.90
5023;DHT22;2530;47.990;7.866;2022-08-02T03:44:48;16.50;99.90
5023;DHT22;2530;47.990;7.866;2022-08-02T03:47:16;16.60;99.90
5023;DHT22;2530;47.990;7.866;2022-08-02T03:49:42;16.50;99.90
5023;DHT22;2530;47.990;7.866;2022-08-02T03:52:08;16.60;99.90
5023;DHT22;2530;47.990;7.866;2022-08-02T03:54:36;16.50;99.90
5023;DHT22;2530;47.990;7.866;2022-08-02T03:57:04;16.50;99.90
5023;DHT22;2530;47.990;7.866;2022-08-02T03:59:39;16.50;99.90
5023;DHT22;2530;47.990;7.866;2022-08-02T04:02:05;16.50;99.90
5023;DHT22;2530;47.990;7.866;2022-08-02T04:04:31;16.50;99.90
5023;DHT22;2530;47.990;7.866;2022-08-02T04:06:57;16.50;99.90
5023;DHT22;2530;47.990;7.866;2022-08-02T04:09:23;16.50;99.90
5023;DHT22;2530;47.990;7.866;2022-08-02T04:11:48;16.40;99.90
5023;DHT22;2530;47.990;7.866;2022-08-02T04:14:14;16.30;99.90
5023;DHT22;2530;47.990;7.866;2022-08-02T04:16:47;16.40;99.90
5023;DHT22;2530;47.990;7.866;2022-08-02T04:19:41;16.40;99.90
5023;DHT22;2530;47.990;7.866;2022-08-02T04:22:13;16.40;99.90
5023;DHT22;2530;47.990;7.866;2022-08-02T04:24:42;16.40;99.90
5023;DHT22;2530;47.990;7.866;2022-08-02T04:27:09;16.50;99.90
5023;DHT22;2530;47.990;7.866;2022-08-02T04:29:36;16.50;99.90
5023;DHT22;2530;47.990;7.866;2022-08-02T04:32:04;16.50;99.90
5023;DHT22;2530;47.990;7.866;2022-08-02T04:34:30;16.50;99.90
5023;DHT22;2530;47.990;7.866;2022-08-02T04:36:56;16.40;99.90
5023;DHT22;2530;47.990;7.866;2022-08-02T04:39:23;16.60;99.90
5023;DHT22;2530;47.990;7.866;2022-08-02T04:41:49;16.60;99.90
5023;DHT22;2530;47.990;7.866;2022-08-02T04:44:15;16.60;99.90
5023;DHT22;2530;47.990;7.866;2022-08-02T04:46:42;16.70;99.90
5023;DHT22;2530;47.990;7.866;2022-08-02T04:49:08;16.70;99.90
5023;DHT22;2530;47.990;7.866;2022-08-02T04:51:38;16.70;99.90
5023;DHT22;2530;47.990;7.866;2022-08-02T04:54:05;16.80;99.90
5023;DHT22;2530;47.990;7.866;2022-08-02T04:56:31;16.70;99.90
5023;DHT22;2530;47.990;7.866;2022-08-02T04:58:57;16.80;99.90
5023;DHT22;2530;47.990;7.866;2022-08-02T05:01:23;16.80;99.90
5023;DHT22;2530;47.990;7.866;2022-08-02T05:03:49;16.80;99.90
5023;DHT22;2530;47.990;7.866;2022-08-02T05:06:15;16.80;99.90
5023;DHT22;2530;47.990;7.866;2022-08-02T05:08:41;16.90;99.90
5023;DHT22;2530;47.990;7.866;2022-08-02T05:11:07;16.90;99.90
5023;DHT22;2530;47.990;7.866;2022-08-02T05:13:33;17.00;99.90
5023;DHT22;2530;47.990;7.866;2022-08-02T05:15:58;17.00;99.90
5023;DHT22;2530;47.990;7.866;2022-08-02T05:18:26;17.00;99.90
5023;DHT22;2530;47.990;7.866;2022-08-02T05:20:53;17.00;99.90
5023;DHT22;2530;47.990;7.866;2022-08-02T05:23:19;17.10;99.90
5023;DHT22;2530;47.990;7.866;2022-08-02T05:25:45;17.10;99.90
5023;DHT22;2530;47.990;7.866;2022-08-02T05:28:11;17.20;99.90
5023;DHT22;2530;47.990;7.866;2022-08-02T05:30:38;17.20;99.90
5023;DHT22;2530;47.990;7.866;2022-08-02T05:33:03;17.20;99.90
5023;DHT22;2530;47.990;7.866;2022-08-02T05:35:30;17.30;99.90
5023;DHT22;2530;47.990;7.866;2022-08-02T05:37:56;17.30;99.90
5023;DHT22;2530;47.990;7.866;2022-08-02T05:40:22;17.40;99.90
5023;DHT22;2530;47.990;7.866;2022-08-02T05:42:48;17.50;99.90
5023;DHT22;2530;47.990;7.866;2022-08-02T05:45:14;17.50;99.90
5023;DHT22;2530;47.990;7.866;2022-08-02T05:47:40;17.50;99.90
5023;DHT22;2530;47.990;7.866;2022-08-02T05:50:07;17.60;99.90
5023;DHT22;2530;47.990;7.866;2022-08-02T05:53:03;17.60;99.90
5023;DHT22;2530;47.990;7.866;2022-08-02T05:55:34;17.50;99.90
5023;DHT22;2530;47.990;7.866;2022-08-02T06:00:33;17.70;99.90
5023;DHT22;2530;47.990;7.866;2022-08-02T06:03:29;17.60;99.90
5023;DHT22;2530;47.990;7.866;2022-08-02T06:06:08;17.70;99.90
5023;DHT22;2530;47.990;7.866;2022-08-02T06:08:47;17.70;99.90
5023;DHT22;2530;47.990;7.866;2022-08-02T06:11:16;17.80;99.90
5023;DHT22;2530;47.990;7.866;2022-08-02T06:13:45;18.00;99.90
5023;DHT22;2530;47.990;7.866;2022-08-02T06:16:12;18.10;99.90
5023;DHT22;2530;47.990;7.866;2022-08-02T06:18:40;18.20;99.90
5023;DHT22;2530;47.990;7.866;2022-08-02T06:21:06;18.30;99.90
5023;DHT22;2530;47.990;7.866;2022-08-02T06:23:33;18.40;99.90
5023;DHT22;2530;47.990;7.866;2022-08-02T06:26:04;18.50;99.90
5023;DHT22;2530;47.990;7.866;2022-08-02T06:28:31;18.50;99.90
5023;DHT22;2530;47.990;7.866;2022-08-02T06:30:58;18.50;99.90
5023;DHT22;2530;47.990;7.866;2022-08-02T06:33:24;18.50;99.90
5023;DHT22;2530;47.990;7.866;2022-08-02T06:38:24;18.50;99.90
5023;DHT22;2530;47.990;7.866;2022-08-02T06:41:04;18.50;99.90
5023;DHT22;2530;47.990;7.866;2022-08-02T06:46:06;18.60;99.90
5023;DHT22;2530;47.990;7.866;2022-08-02T06:48:32;18.70;99.90
5023;DHT22;2530;47.990;7.866;2022-08-02T06:51:04;18.70;99.90
5023;DHT22;2530;47.990;7.866;2022-08-02T06:53:30;18.70;99.90
5023;DHT22;2530;47.990;7.866;2022-08-02T06:55:56;18.80;99.90
5023;DHT22;2530;47.990;7.866;2022-08-02T06:58:22;18.90;99.90
5023;DHT22;2530;47.990;7.866;2022-08-02T07:00:48;19.00;99.90
5023;DHT22;2530;47.990;7.866;2022-08-02T07:03:14;19.10;99.90
5023;DHT22;2530;47.990;7.866;2022-08-02T07:05:40;19.20;99.90
5023;DHT22;2530;47.990;7.866;2022-08-02T07:08:06;19.30;99.90
5023;DHT22;2530;47.990;7.866;2022-08-02T07:10:32;19.30;99.90
5023;DHT22;2530;47.990;7.866;2022-08-02T07:12:58;19.40;99.90
5023;DHT22;2530;47.990;7.866;2022-08-02T07:15:25;19.40;99.90
5023;DHT22;2530;47.990;7.866;2022-08-02T07:17:51;19.60;99.90
5023;DHT22;2530;47.990;7.866;2022-08-02T07:20:17;19.70;99.90
5023;DHT22;2530;47.990;7.866;2022-08-02T07:22:43;19.80;99.90
5023;DHT22;2530;47.990;7.866;2022-08-02T07:25:09;19.80;99.90
5023;DHT22;2530;47.990;7.866;2022-08-02T07:27:35;19.90;99.90
5023;DHT22;2530;47.990;7.866;2022-08-02T07:30:01;19.90;99.90
5023;DHT22;2530;47.990;7.866;2022-08-02T07:32:29;20.00;99.90
5023;DHT22;2530;47.990;7.866;2022-08-02T07:34:57;20.00;99.90
5023;DHT22;2530;47.990;7.866;2022-08-02T07:37:29;20.10;99.90
5023;DHT22;2530;47.990;7.866;2022-08-02T07:39:55;20.20;99.90
5023;DHT22;2530;47.990;7.866;2022-08-02T07:42:21;20.20;99.90
5023;DHT22;2530;47.990;7.866;2022-08-02T07:44:47;20.30;99.90
5023;DHT22;2530;47.990;7.866;2022-08-02T07:47:13;20.50;99.90
5023;DHT22;2530;47.990;7.866;2022-08-02T07:49:39;20.70;99.90
5023;DHT22;2530;47.990;7.866;2022-08-02T07:52:05;20.90;99.90
5023;DHT22;2530;47.990;7.866;2022-08-02T07:54:31;21.20;99.90
5023;DHT22;2530;47.990;7.866;2022-08-02T07:56:57;21.30;99.90
5023;DHT22;2530;47.990;7.866;2022-08-02T07:59:23;21.40;99.90
5023;DHT22;2530;47.990;7.866;2022-08-02T08:01:49;21.50;99.90
5023;DHT22;2530;47.990;7.866;2022-08-02T08:04:16;21.50;99.90
5023;DHT22;2530;47.990;7.866;2022-08-02T08:06:42;21.50;99.90
5023;DHT22;2530;47.990;7.866;2022-08-02T08:09:11;21.60;99.90
5023;DHT22;2530;47.990;7.866;2022-08-02T08:11:37;21.60;99.90
5023;DHT22;2530;47.990;7.866;2022-08-02T08:14:04;21.80;99.90
5023;DHT22;2530;47.990;7.866;2022-08-02T08:16:30;21.90;99.90
5023;DHT22;2530;47.990;7.866;2022-08-02T08:18:57;22.00;99.90
5023;DHT22;2530;47.990;7.866;2022-08-02T08:21:22;22.10;99.90
5023;DHT22;2530;47.990;7.866;2022-08-02T08:23:48;22.20;99.90
5023;DHT22;2530;47.990;7.866;2022-08-02T08:26:14;22.30;99.90
5023;DHT22;2530;47.990;7.866;2022-08-02T08:28:41;22.40;99.90
5023;DHT22;2530;47.990;7.866;2022-08-02T08:31:06;22.50;99.90
5023;DHT22;2530;47.990;7.866;2022-08-02T08:33:32;22.60;99.90
5023;DHT22;2530;47.990;7.866;2022-08-02T08:35:58;22.70;99.90
5023;DHT22;2530;47.990;7.866;2022-08-02T08:38:24;22.80;99.90
5023;DHT22;2530;47.990;7.866;2022-08-02T08:40:50;22.90;99.90
5023;DHT22;2530;47.990;7.866;2022-08-02T08:43:16;22.90;99.90
5023;DHT22;2530;47.990;7.866;2022-08-02T08:45:46;22.90;99.90
5023;DHT22;2530;47.990;7.866;2022-08-02T08:48:14;22.90;99.90
5023;DHT22;2530;47.990;7.866;2022-08-02T08:50:56;23.00;99.90
5023;DHT22;2530;47.990;7.866;2022-08-02T08:53:26;23.00;99.90
5023;DHT22;2530;47.990;7.866;2022-08-02T08:55:54;23.10;99.90
5023;DHT22;2530;47.990;7.866;2022-08-02T08:58:22;23.20;99.90
5023;DHT22;2530;47.990;7.866;2022-08-02T09:00:48;23.20;99.90
5023;DHT22;2530;47.990;7.866;2022-08-02T09:03:14;23.30;99.90
5023;DHT22;2530;47.990;7.866;2022-08-02T09:05:40;23.30;99.90
5023;DHT22;2530;47.990;7.866;2022-08-02T09:08:07;23.40;99.90
5023;DHT22;2530;47.990;7.866;2022-08-02T09:10:45;23.30;99.90
5023;DHT22;2530;47.990;7.866;2022-08-02T09:13:15;23.40;99.90
5023;DHT22;2530;47.990;7.866;2022-08-02T09:15:44;23.50;99.90
5023;DHT22;2530;47.990;7.866;2022-08-02T09:18:11;23.50;99.90
5023;DHT22;2530;47.990;7.866;2022-08-02T09:23:18;23.70;99.90
5023;DHT22;2530;47.990;7.866;2022-08-02T09:26:05;23.70;99.90
5023;DHT22;2530;47.990;7.866;2022-08-02T09:28:33;23.80;99.90
5023;DHT22;2530;47.990;7.866;2022-08-02T09:33:29;23.80;99.90
5023;DHT22;2530;47.990;7.866;2022-08-02T09:36:00;23.80;99.90
5023;DHT22;2530;47.990;7.866;2022-08-02T09:38:26;23.70;99.90
5023;DHT22;2530;47.990;7.866;2022-08-02T09:40:52;23.70;99.90
5023;DHT22;2530;47.990;7.866;2022-08-02T09:43:18;23.70;99.90
5023;DHT22;2530;47.990;7.866;2022-08-02T09:45:45;23.90;99.90
5023;DHT22;2530;47.990;7.866;2022-08-02T09:48:11;23.90;99.90
5023;DHT22;2530;47.990;7.866;2022-08-02T09:50:39;23.70;99.90
5023;DHT22;2530;47.990;7.866;2022-08-02T09:53:11;23.70;99.90
5023;DHT22;2530;47.990;7.866;2022-08-02T09:55:39;23.90;99.90
5023;DHT22;2530;47.990;7.866;2022-08-02T09:58:18;23.80;99.90
5023;DHT22;2530;47.990;7.866;2022-08-02T10:00:53;23.80;99.90
5023;DHT22;2530;47.990;7.866;2022-08-02T10:03:19;23.80;99.90
5023;DHT22;2530;47.990;7.866;2022-08-02T10:08:12;24.00;99.90
5023;DHT22;2530;47.990;7.866;2022-08-02T10:10:40;24.00;99.90
5023;DHT22;2530;47.990;7.866;2022-08-02T10:13:06;24.20;99.90
5023;DHT22;2530;47.990;7.866;2022-08-02T10:15:32;24.40;99.90
5023;DHT22;2530;47.990;7.866;2022-08-02T10:17:58;24.30;99.90
5023;DHT22;2530;47.990;7.866;2022-08-02T10:20:24;24.30;99.90
5023;DHT22;2530;47.990;7.866;2022-08-02T10:22:51;24.50;99.90
5023;DHT22;2530;47.990;7.866;2022-08-02T10:25:19;24.50;99.90
5023;DHT22;2530;47.990;7.866;2022-08-02T10:27:46;24.60;99.90
5023;DHT22;2530;47.990;7.866;2022-08-02T10:30:13;24.60;99.90
5023;DHT22;2530;47.990;7.866;2022-08-02T10:32:42;24.30;99.90
5023;DHT22;2530;47.990;7.866;2022-08-02T10:35:13;24.40;99.90
5023;DHT22;2530;47.990;7.866;2022-08-02T10:37:40;24.80;99.90
5023;DHT22;2530;47.990;7.866;2022-08-02T10:40:09;24.90;99.90
5023;DHT22;2530;47.990;7.866;2022-08-02T10:42:52;24.80;99.90
5023;DHT22;2530;47.990;7.866;2022-08-02T10:45:20;24.80;99.90
5023;DHT22;2530;47.990;7.866;2022-08-02T10:47:59;24.90;99.90
5023;DHT22;2530;47.990;7.866;2022-08-02T10:53:22;24.80;99.90
5023;DHT22;2530;47.990;7.866;2022-08-02T10:55:48;24.80;99.90
5023;DHT22;2530;47.990;7.866;2022-08-02T10:58:24;25.00;99.90
5023;DHT22;2530;47.990;7.866;2022-08-02T11:00:52;25.00;99.90
5023;DHT22;2530;47.990;7.866;2022-08-02T11:08:28;25.50;99.90
5023;DHT22;2530;47.990;7.866;2022-08-02T11:13:29;25.70;99.90
5023;DHT22;2530;47.990;7.866;2022-08-02T11:16:04;25.70;99.90
5023;DHT22;2530;47.990;7.866;2022-08-02T11:21:27;25.80;99.60
5023;DHT22;2530;47.990;7.866;2022-08-02T11:23:54;26.00;99.70
5023;DHT22;2530;47.990;7.866;2022-08-02T11:26:46;26.30;99.90
5023;DHT22;2530;47.990;7.866;2022-08-02T11:29:12;26.30;97.10
5023;DHT22;2530;47.990;7.866;2022-08-02T11:31:40;26.50;97.50
5023;DHT22;2530;47.990;7.866;2022-08-02T11:34:07;26.40;96.20
5023;DHT22;2530;47.990;7.866;2022-08-02T11:36:42;26.40;97.40
5023;DHT22;2530;47.990;7.866;2022-08-02T11:39:13;26.60;96.40
5023;DHT22;2530;47.990;7.866;2022-08-02T11:41:39;27.10;95.30
5023;DHT22;2530;47.990;7.866;2022-08-02T11:44:05;27.60;92.40
5023;DHT22;2530;47.990;7.866;2022-08-02T11:46:30;28.40;91.30
5023;DHT22;2530;47.990;7.866;2022-08-02T11:48:56;28.60;87.80
5023;DHT22;2530;47.990;7.866;2022-08-02T11:51:22;29.50;81.70
5023;DHT22;2530;47.990;7.866;2022-08-02T11:53:53;29.20;78.20
5023;DHT22;2530;47.990;7.866;2022-08-02T11:56:30;29.00;80.30
5023;DHT22;2530;47.990;7.866;2022-08-02T11:59:07;29.40;75.50
5023;DHT22;2530;47.990;7.866;2022-08-02T12:01:36;29.00;85.00
5023;DHT22;2530;47.990;7.866;2022-08-02T12:04:05;29.40;80.90
5023;DHT22;2530;47.990;7.866;2022-08-02T12:06:32;30.30;73.20
5023;DHT22;2530;47.990;7.866;2022-08-02T12:09:08;29.30;81.60
5023;DHT22;2530;47.990;7.866;2022-08-02T12:11:35;30.00;73.90
5023;DHT22;2530;47.990;7.866;2022-08-02T12:14:01;29.80;71.30
5023;DHT22;2530;47.990;7.866;2022-08-02T12:16:35;29.90;74.80
5023;DHT22;2530;47.990;7.866;2022-08-02T12:19:21;30.10;73.90
5023;DHT22;2530;47.990;7.866;2022-08-02T12:22:07;30.20;72.60
5023;DHT22;2530;47.990;7.866;2022-08-02T12:24:33;31.30;69.50
5023;DHT22;2530;47.990;7.866;2022-08-02T12:26:59;30.30;69.40
5023;DHT22;2530;47.990;7.866;2022-08-02T12:29:33;31.10;64.60
5023;DHT22;2530;47.990;7.866;2022-08-02T12:31:59;31.00;67.60
5023;DHT22;2530;47.990;7.866;2022-08-02T12:34:27;30.90;66.10
5023;DHT22;2530;47.990;7.866;2022-08-02T12:36:58;30.90;65.50
5023;DHT22;2530;47.990;7.866;2022-08-02T12:39:41;31.40;64.80
5023;DHT22;2530;47.990;7.866;2022-08-02T12:42:10;30.00;63.80
5023;DHT22;2530;47.990;7.866;2022-08-02T12:44:38;30.50;66.40
5023;DHT22;2530;47.990;7.866;2022-08-02T12:47:09;30.10;63.90
5023;DHT22;2530;47.990;7.866;2022-08-02T12:49:35;30.20;64.80
5023;DHT22;2530;47.990;7.866;2022-08-02T12:52:01;31.00;61.90
5023;DHT22;2530;47.990;7.866;2022-08-02T12:54:30;31.00;61.70
5023;DHT22;2530;47.990;7.866;2022-08-02T12:57:14;31.20;58.30
5023;DHT22;2530;47.990;7.866;2022-08-02T12:59:41;31.20;60.20
5023;DHT22;2530;47.990;7.866;2022-08-02T13:02:10;30.90;62.30
5023;DHT22;2530;47.990;7.866;2022-08-02T13:04:36;31.40;61.10
5023;DHT22;2530;47.990;7.866;2022-08-02T13:07:04;31.60;61.30
5023;DHT22;2530;47.990;7.866;2022-08-02T13:09:35;31.80;59.00
5023;DHT22;2530;47.990;7.866;2022-08-02T13:12:02;31.60;59.70
5023;DHT22;2530;47.990;7.866;2022-08-02T13:14:28;32.20;57.90
5023;DHT22;2530;47.990;7.866;2022-08-02T13:16:54;31.50;58.10
5023;DHT22;2530;47.990;7.866;2022-08-02T13:19:19;31.10;57.60
5023;DHT22;2530;47.990;7.866;2022-08-02T13:21:45;30.70;58.40
5023;DHT22;2530;47.990;7.866;2022-08-02T13:24:13;30.90;59.50
5023;DHT22;2530;47.990;7.866;2022-08-02T13:26:43;30.90;58.50
5023;DHT22;2530;47.990;7.866;2022-08-02T13:29:10;30.20;58.80
5023;DHT22;2530;47.990;7.866;2022-08-02T13:31:38;30.70;59.10
5023;DHT22;2530;47.990;7.866;2022-08-02T13:34:05;30.90;62.20
5023;DHT22;2530;47.990;7.866;2022-08-02T13:36:33;31.20;65.20
5023;DHT22;2530;47.990;7.866;2022-08-02T13:39:03;31.20;61.90
5023;DHT22;2530;47.990;7.866;2022-08-02T13:41:30;31.20;60.50
5023;DHT22;2530;47.990;7.866;2022-08-02T13:43:56;30.60;61.80
5023;DHT22;2530;47.990;7.866;2022-08-02T13:46:22;30.50;62.70
5023;DHT22;2530;47.990;7.866;2022-08-02T13:48:48;30.10;64.50
5023;DHT22;2530;47.990;7.866;2022-08-02T13:51:14;30.40;61.90
5023;DHT22;2530;47.990;7.866;2022-08-02T13:53:41;31.00;60.00
5023;DHT22;2530;47.990;7.866;2022-08-02T13:56:07;30.50;58.80
5023;DHT22;2530;47.990;7.866;2022-08-02T13:58:33;30.50;59.70
5023;DHT22;2530;47.990;7.866;2022-08-02T14:00:59;30.20;59.40
5023;DHT22;2530;47.990;7.866;2022-08-02T14:03:25;30.50;60.50
5023;DHT22;2530;47.990;7.866;2022-08-02T14:05:51;30.60;59.70
5023;DHT22;2530;47.990;7.866;2022-08-02T14:08:17;30.50;58.50
5023;DHT22;2530;47.990;7.866;2022-08-02T14:10:47;30.40;56.70
5023;DHT22;2530;47.990;7.866;2022-08-02T14:13:13;30.30;56.10
5023;DHT22;2530;47.990;7.866;2022-08-02T14:15:39;30.10;55.70
5023;DHT22;2530;47.990;7.866;2022-08-02T14:18:05;30.30;56.10
5023;DHT22;2530;47.990;7.866;2022-08-02T14:20:30;30.20;59.00
5023;DHT22;2530;47.990;7.866;2022-08-02T14:22:56;30.60;57.10
5023;DHT22;2530;47.990;7.866;2022-08-02T14:25:22;30.50;55.80
5023;DHT22;2530;47.990;7.866;2022-08-02T14:27:47;30.20;52.90
5023;DHT22;2530;47.990;7.866;2022-08-02T14:30:13;30.10;53.50
5023;DHT22;2530;47.990;7.866;2022-08-02T14:32:39;30.10;53.20
5023;DHT22;2530;47.990;7.866;2022-08-02T14:35:05;30.60;53.00
5023;DHT22;2530;47.990;7.866;2022-08-02T14:37:31;30.90;53.30
5023;DHT22;2530;47.990;7.866;2022-08-02T14:39:57;30.50;51.70
5023;DHT22;2530;47.990;7.866;2022-08-02T14:42:22;30.90;52.60
5023;DHT22;2530;47.990;7.866;2022-08-02T14:44:48;31.10;52.40
5023;DHT22;2530;47.990;7.866;2022-08-02T14:47:14;31.60;52.20
5023;DHT22;2530;47.990;7.866;2022-08-02T14:49:40;31.60;51.10
5023;DHT22;2530;47.990;7.866;2022-08-02T14:52:06;31.60;50.60
5023;DHT22;2530;47.990;7.866;2022-08-02T14:54:32;32.00;49.50
5023;DHT22;2530;47.990;7.866;2022-08-02T14:57:01;32.20;47.30
5023;DHT22;2530;47.990;7.866;2022-08-02T14:59:28;31.70;45.40
5023;DHT22;2530;47.990;7.866;2022-08-02T15:01:54;31.70;48.70
5023;DHT22;2530;47.990;7.866;2022-08-02T15:04:20;31.30;45.90
5023;DHT22;2530;47.990;7.866;2022-08-02T15:06:46;31.70;48.70
5023;DHT22;2530;47.990;7.866;2022-08-02T15:09:11;31.20;44.50
5023;DHT22;2530;47.990;7.866;2022-08-02T15:11:38;31.90;44.50
5023;DHT22;2530;47.990;7.866;2022-08-02T15:14:04;31.80;43.90
5023;DHT22;2530;47.990;7.866;2022-08-02T15:16:30;31.70;43.70
5023;DHT22;2530;47.990;7.866;2022-08-02T15:19:01;31.30;42.70
5023;DHT22;2530;47.990;7.866;2022-08-02T15:21:27;31.40;43.20
5023;DHT22;2530;47.990;7.866;2022-08-02T15:23:53;31.10;43.50
5023;DHT22;2530;47.990;7.866;2022-08-02T15:26:19;31.40;43.90
5023;DHT22;2530;47.990;7.866;2022-08-02T15:28:46;31.70;44.60
5023;DHT22;2530;47.990;7.866;2022-08-02T15:31:12;31.30;45.00
5023;DHT22;2530;47.990;7.866;2022-08-02T15:33:40;31.60;45.70
5023;DHT22;2530;47.990;7.866;2022-08-02T15:36:06;31.60;45.60
5023;DHT22;2530;47.990;7.866;2022-08-02T15:38:32;32.00;47.20
5023;DHT22;2530;47.990;7.866;2022-08-02T15:40:59;32.60;46.30
5023;DHT22;2530;47.990;7.866;2022-08-02T15:43:25;32.70;45.50
5023;DHT22;2530;47.990;7.866;2022-08-02T15:45:50;32.10;42.40
5023;DHT22;2530;47.990;7.866;2022-08-02T15:48:16;31.30;43.20
5023;DHT22;2530;47.990;7.866;2022-08-02T15:50:43;31.30;44.40
5023;DHT22;2530;47.990;7.866;2022-08-02T15:53:08;31.90;43.90
5023;DHT22;2530;47.990;7.866;2022-08-02T15:55:34;32.20;43.50
5023;DHT22;2530;47.990;7.866;2022-08-02T15:58:00;31.60;43.70
5023;DHT22;2530;47.990;7.866;2022-08-02T16:00:26;31.90;44.80
5023;DHT22;2530;47.990;7.866;2022-08-02T16:02:54;32.00;45.30
5023;DHT22;2530;47.990;7.866;2022-08-02T16:05:20;31.60;43.50
5023;DHT22;2530;47.990;7.866;2022-08-02T16:07:46;31.90;44.10
5023;DHT22;2530;47.990;7.866;2022-08-02T16:10:13;32.10;44.40
5023;DHT22;2530;47.990;7.866;2022-08-02T16:12:39;31.90;44.40
5023;DHT22;2530;47.990;7.866;2022-08-02T16:15:05;31.70;42.30
5023;DHT22;2530;47.990;7.866;2022-08-02T16:17:31;31.70;43.10
5023;DHT22;2530;47.990;7.866;2022-08-02T16:19:57;32.00;43.90
5023;DHT22;2530;47.990;7.866;2022-08-02T16:22:23;32.10;43.70
5023;DHT22;2530;47.990;7.866;2022-08-02T16:24:49;31.90;44.70
5023;DHT22;2530;47.990;7.866;2022-08-02T16:27:15;31.70;43.10
5023;DHT22;2530;47.990;7.866;2022-08-02T16:29:40;31.90;44.50
5023;DHT22;2530;47.990;7.866;2022-08-02T16:32:07;32.00;45.00
5023;DHT22;2530;47.990;7.866;2022-08-02T16:34:34;31.90;45.40
5023;DHT22;2530;47.990;7.866;2022-08-02T16:37:00;31.90;44.80
5023;DHT22;2530;47.990;7.866;2022-08-02T16:39:25;32.20;44.30
5023;DHT22;2530;47.990;7.866;2022-08-02T16:41:51;32.10;43.40
5023;DHT22;2530;47.990;7.866;2022-08-02T16:44:17;31.90;43.50